createdAt,value
2017-12-06T00:01:36.991Z,-0.01
2017-12-06T00:04:04.690Z,0.08
2017-12-06T00:06:32.468Z,-0.03
2017-12-06T00:09:00.184Z,0.01
2017-12-06T00:11:27.900Z,0.04
2017-12-06T00:14:01.064Z,0.09
2017-12-06T00:16:28.814Z,0.18
2017-12-06T00:18:56.515Z,0.29
2017-12-06T00:21:24.274Z,0.33
2017-12-06T00:23:52.023Z,0.21
2017-12-06T00:26:19.785Z,0.46
2017-12-06T00:28:47.502Z,0.31
2017-12-06T00:31:15.184Z,0.10
2017-12-06T00:33:42.980Z,-0.01
2017-12-06T00:36:10.674Z,-0.08
2017-12-06T00:38:38.368Z,-0.06
2017-12-06T00:41:06.102Z,-0.03
2017-12-06T00:43:33.934Z,-0.17
2017-12-06T00:46:01.694Z,-0.23
2017-12-06T00:48:29.414Z,-0.29
2017-12-06T00:50:57.151Z,-0.28
2017-12-06T00:53:24.867Z,-0.25
2017-12-06T00:55:52.615Z,-0.19
2017-12-06T00:58:20.372Z,-0.20
2017-12-06T01:00:48.206Z,-0.25
2017-12-06T01:03:15.876Z,-0.17
2017-12-06T01:05:43.583Z,-0.28
2017-12-06T01:08:11.298Z,-0.38
2017-12-06T01:10:39.033Z,-0.38
2017-12-06T01:13:06.709Z,-0.34
2017-12-06T01:15:34.558Z,-0.33
2017-12-06T01:18:02.482Z,-0.43
2017-12-06T01:20:30.303Z,-0.37
2017-12-06T01:22:58.047Z,-0.34
2017-12-06T01:25:25.759Z,-0.31
2017-12-06T01:27:53.427Z,-0.18
2017-12-06T01:30:21.130Z,-0.29
2017-12-06T01:32:48.890Z,-0.41
2017-12-06T01:35:16.551Z,-0.52
2017-12-06T01:37:44.428Z,-0.70
2017-12-06T01:40:12.158Z,-0.67
2017-12-06T01:42:39.832Z,-0.49
2017-12-06T01:45:07.502Z,-0.41
2017-12-06T01:56:07.842Z,-0.35
2017-12-06T01:58:35.504Z,-0.34
2017-12-06T02:01:03.257Z,-0.33
2017-12-06T02:03:31.119Z,-0.40
2017-12-06T02:05:58.907Z,-0.45
2017-12-06T02:08:26.646Z,-0.48
2017-12-06T02:11:15.221Z,-0.60
2017-12-06T02:13:42.964Z,-0.54
2017-12-06T02:16:10.650Z,-0.54
2017-12-06T02:18:38.389Z,-0.62
2017-12-06T02:21:06.160Z,-0.45
2017-12-06T02:23:34.030Z,-0.53
2017-12-06T02:26:01.793Z,-0.54
2017-12-06T02:28:29.515Z,-0.59
2017-12-06T02:30:57.241Z,-0.72
2017-12-06T02:33:25.016Z,-0.68
2017-12-06T02:35:52.763Z,-0.60
2017-12-06T02:38:20.478Z,-0.58
2017-12-06T02:44:03.183Z,-0.71
2017-12-06T02:46:30.954Z,-0.61
2017-12-06T02:48:58.643Z,-0.59
2017-12-06T02:51:26.416Z,-0.63
2017-12-06T02:53:54.122Z,-0.66
2017-12-06T02:56:21.863Z,-0.69
2017-12-06T02:58:49.593Z,-0.69
2017-12-06T03:01:17.336Z,-0.70
2017-12-06T03:03:45.084Z,-0.52
2017-12-06T03:06:12.793Z,-0.59
2017-12-06T03:08:40.501Z,-0.42
2017-12-06T03:11:08.225Z,-0.71
2017-12-06T03:13:35.947Z,-0.85
2017-12-06T03:16:03.662Z,-0.90
2017-12-06T03:18:31.524Z,-0.91
2017-12-06T03:20:59.204Z,-0.95
2017-12-06T03:23:26.865Z,-1.01
2017-12-06T03:25:54.591Z,-1.00
2017-12-06T03:28:22.313Z,-1.05
2017-12-06T03:30:50.036Z,-1.01
2017-12-06T03:33:17.723Z,-1.08
2017-12-06T03:35:45.428Z,-1.10
2017-12-06T03:38:13.113Z,-1.20
2017-12-06T03:40:40.867Z,-1.20
2017-12-06T03:43:08.602Z,-1.21
2017-12-06T03:45:36.311Z,-1.20
2017-12-06T03:48:04.055Z,-1.17
2017-12-06T03:50:31.869Z,-1.04
2017-12-06T03:52:59.642Z,-1.01
2017-12-06T03:55:27.360Z,-1.08
2017-12-06T03:57:55.163Z,-1.12
2017-12-06T04:00:22.988Z,-1.15
2017-12-06T04:02:50.671Z,-1.14
2017-12-06T04:05:18.498Z,-1.16
2017-12-06T04:07:46.264Z,-1.11
2017-12-06T04:10:13.959Z,-1.09
2017-12-06T04:12:41.748Z,-0.96
2017-12-06T04:15:09.481Z,-0.93
2017-12-06T04:17:37.227Z,-0.98
2017-12-06T04:20:04.924Z,-0.95
2017-12-06T04:22:32.631Z,-0.95
2017-12-06T04:25:00.576Z,-1.16
2017-12-06T04:27:28.270Z,-1.17
2017-12-06T04:29:56.038Z,-1.32
2017-12-06T04:32:23.766Z,-1.27
2017-12-06T04:34:51.456Z,-1.12
2017-12-06T04:37:19.219Z,-1.08
2017-12-06T04:39:46.979Z,-1.25
2017-12-06T04:42:14.775Z,-1.07
2017-12-06T04:44:42.529Z,-1.31
2017-12-06T04:47:10.276Z,-1.30
2017-12-06T04:49:38.021Z,-1.36
2017-12-06T04:52:05.788Z,-1.44
2017-12-06T04:54:33.489Z,-1.15
2017-12-06T04:57:01.227Z,-1.18
2017-12-06T04:59:28.885Z,-1.24
2017-12-06T05:01:56.631Z,-1.29
2017-12-06T05:04:24.425Z,-1.25
2017-12-06T05:06:52.137Z,-1.36
2017-12-06T05:09:20.630Z,-1.41
2017-12-06T05:11:48.411Z,-1.40
2017-12-06T05:14:16.085Z,-1.40
2017-12-06T05:16:43.788Z,-1.40
2017-12-06T05:19:11.629Z,-1.43
2017-12-06T05:21:39.351Z,-1.22
2017-12-06T05:24:07.894Z,-1.30
2017-12-06T05:26:35.748Z,-1.40
2017-12-06T05:29:03.432Z,-1.41
2017-12-06T05:31:32.110Z,-1.41
2017-12-06T05:33:59.934Z,-1.24
2017-12-06T05:36:27.650Z,-1.26
2017-12-06T05:38:55.859Z,-1.22
2017-12-06T05:41:23.595Z,-1.21
2017-12-06T05:43:51.355Z,-1.27
2017-12-06T05:46:19.171Z,-1.19
2017-12-06T05:48:46.885Z,-1.19
2017-12-06T05:51:14.667Z,-1.22
2017-12-06T05:53:42.419Z,-1.27
2017-12-06T05:56:10.190Z,-1.30
2017-12-06T05:58:37.889Z,-1.23
2017-12-06T06:01:05.715Z,-1.27
2017-12-06T06:03:33.421Z,-1.20
2017-12-06T06:06:01.159Z,-1.37
2017-12-06T06:08:28.844Z,-1.44
2017-12-06T06:10:56.620Z,-1.36
2017-12-06T06:13:24.294Z,-1.25
2017-12-06T06:15:52.111Z,-1.27
2017-12-06T06:18:19.842Z,-1.33
2017-12-06T06:20:47.595Z,-1.20
2017-12-06T06:23:15.294Z,-1.19
2017-12-06T06:25:42.991Z,-1.33
2017-12-06T06:28:10.765Z,-1.27
2017-12-06T06:30:38.946Z,-1.29
2017-12-06T06:33:06.691Z,-1.43
2017-12-06T06:35:34.426Z,-1.47
2017-12-06T06:38:02.162Z,-1.40
2017-12-06T06:40:29.907Z,-1.26
2017-12-06T06:42:57.665Z,-1.12
2017-12-06T06:45:25.430Z,-1.16
2017-12-06T06:47:53.158Z,-1.15
2017-12-06T06:50:20.969Z,-1.20
2017-12-06T06:52:48.681Z,-1.24
2017-12-06T06:55:16.443Z,-1.36
2017-12-06T06:57:44.235Z,-1.32
2017-12-06T07:00:11.994Z,-1.40
2017-12-06T07:02:39.700Z,-0.85
2017-12-06T07:05:07.605Z,-0.81
2017-12-06T07:07:35.351Z,-0.83
2017-12-06T07:10:03.295Z,-0.90
2017-12-06T07:12:31.103Z,-0.91
2017-12-06T07:14:58.801Z,-0.92
2017-12-06T07:17:26.517Z,-0.85
2017-12-06T07:19:54.238Z,-0.56
2017-12-06T07:22:22.152Z,-0.30
2017-12-06T07:24:49.851Z,-0.37
2017-12-06T07:27:17.568Z,-0.29
2017-12-06T07:29:45.288Z,-0.35
2017-12-06T07:32:13.582Z,-0.38
2017-12-06T07:34:41.537Z,-0.50
2017-12-06T07:37:09.271Z,-0.60
2017-12-06T07:39:36.999Z,-0.75
2017-12-06T07:42:04.784Z,-0.15
2017-12-06T07:44:32.672Z,0.32
2017-12-06T07:47:00.423Z,0.96
2017-12-06T07:49:28.133Z,1.70
2017-12-06T07:51:55.936Z,2.04
2017-12-06T07:54:23.834Z,2.64
2017-12-06T07:56:51.664Z,2.09
2017-12-06T07:59:19.447Z,1.43
2017-12-06T08:01:47.141Z,2.35
2017-12-06T08:04:14.889Z,2.39
2017-12-06T08:06:42.604Z,2.84
2017-12-06T08:09:10.334Z,1.52
2017-12-06T08:11:38.115Z,1.12
2017-12-06T08:14:05.880Z,1.81
2017-12-06T08:16:33.589Z,0.96
2017-12-06T08:19:01.337Z,0.97
2017-12-06T08:21:29.147Z,1.40
2017-12-06T08:23:56.874Z,1.15
2017-12-06T08:26:24.678Z,1.29
2017-12-06T08:28:52.395Z,1.51
2017-12-06T08:31:20.249Z,1.03
2017-12-06T08:33:47.956Z,1.25
2017-12-06T08:36:15.719Z,1.46
2017-12-06T08:38:43.534Z,1.30
2017-12-06T08:41:11.242Z,1.50
2017-12-06T08:43:40.183Z,2.08
2017-12-06T08:46:07.990Z,2.44
2017-12-06T08:48:35.833Z,2.31
2017-12-06T08:51:03.593Z,2.04
2017-12-06T08:53:31.368Z,2.11
2017-12-06T08:55:59.096Z,2.03
2017-12-06T08:58:26.835Z,2.04
2017-12-06T09:00:54.559Z,1.60
2017-12-06T09:03:22.686Z,1.30
2017-12-06T09:05:50.384Z,1.42
2017-12-06T09:08:18.144Z,2.16
2017-12-06T09:10:46.287Z,3.39
2017-12-06T09:13:15.057Z,3.76
2017-12-06T09:15:42.785Z,3.62
2017-12-06T09:18:10.605Z,3.08
2017-12-06T09:20:38.358Z,3.29
2017-12-06T09:23:06.151Z,3.42
2017-12-06T09:25:33.875Z,3.98
2017-12-06T09:28:01.607Z,3.19
2017-12-06T09:30:29.408Z,3.57
2017-12-06T09:32:57.160Z,3.29
2017-12-06T09:35:24.947Z,3.44
2017-12-06T09:37:52.680Z,3.98
2017-12-06T09:40:20.375Z,4.09
2017-12-06T09:42:48.136Z,4.50
2017-12-06T09:45:15.890Z,5.06
2017-12-06T09:47:43.897Z,4.30
2017-12-06T09:50:11.651Z,4.26
2017-12-06T09:52:39.414Z,5.38
2017-12-06T09:55:07.088Z,5.62
2017-12-06T09:57:34.852Z,6.19
2017-12-06T10:00:02.548Z,6.17
2017-12-06T10:02:30.278Z,6.60
2017-12-06T10:04:57.966Z,6.52
2017-12-06T10:07:25.717Z,6.40
2017-12-06T10:09:53.423Z,6.60
2017-12-06T10:12:21.162Z,5.40
2017-12-06T10:14:48.871Z,5.89
2017-12-06T10:17:16.646Z,6.03
2017-12-06T10:19:44.447Z,5.74
2017-12-06T10:22:12.115Z,5.29
2017-12-06T10:24:39.834Z,5.04
2017-12-06T10:27:07.580Z,5.85
2017-12-06T10:29:35.337Z,6.42
2017-12-06T10:32:03.088Z,6.49
2017-12-06T10:34:30.864Z,5.34
2017-12-06T10:36:58.684Z,6.18
2017-12-06T10:39:26.445Z,5.82
2017-12-06T10:41:54.186Z,6.31
2017-12-06T10:44:22.041Z,6.39
2017-12-06T10:46:49.794Z,6.86
2017-12-06T10:49:17.559Z,6.60
2017-12-06T10:51:45.292Z,7.60
2017-12-06T10:54:13.048Z,7.31
2017-12-06T10:56:40.867Z,6.39
2017-12-06T10:59:08.659Z,7.18
2017-12-06T11:01:36.432Z,8.12
2017-12-06T11:04:04.129Z,8.08
2017-12-06T11:06:31.871Z,8.50
2017-12-06T11:08:59.626Z,8.70
2017-12-06T11:11:27.809Z,8.97
2017-12-06T11:13:55.521Z,8.61
2017-12-06T11:16:23.267Z,8.24
2017-12-06T11:18:51.054Z,8.09
2017-12-06T11:21:18.804Z,7.36
2017-12-06T11:23:46.489Z,7.09
2017-12-06T11:26:14.210Z,7.60
2017-12-06T11:28:41.945Z,6.60
2017-12-06T11:31:09.691Z,6.74
2017-12-06T11:33:37.504Z,7.01
2017-12-06T11:36:05.286Z,7.71
2017-12-06T11:38:33.801Z,7.59
2017-12-06T11:41:01.523Z,7.00
2017-12-06T11:43:29.212Z,6.41
2017-12-06T11:45:56.964Z,6.66
2017-12-06T11:48:24.630Z,6.76
2017-12-06T11:50:52.404Z,6.89
2017-12-06T11:53:20.090Z,6.16
2017-12-06T11:55:47.894Z,6.24
2017-12-06T11:58:15.643Z,6.20
2017-12-06T12:00:43.507Z,6.25
2017-12-06T12:03:11.187Z,5.82
2017-12-06T12:05:39.143Z,6.51
2017-12-06T12:08:06.841Z,7.02
2017-12-06T12:10:34.543Z,6.37
2017-12-06T12:13:02.314Z,6.80
2017-12-06T12:15:30.205Z,6.00
2017-12-06T12:17:57.890Z,6.88
2017-12-06T12:20:25.630Z,7.12
2017-12-06T12:22:53.418Z,6.89
2017-12-06T12:25:21.198Z,6.75
2017-12-06T12:27:49.013Z,6.77
2017-12-06T12:30:16.889Z,6.02
2017-12-06T12:32:44.620Z,6.17
2017-12-06T12:35:12.385Z,6.21
2017-12-06T12:37:40.262Z,6.47
2017-12-06T12:40:08.073Z,6.39
2017-12-06T12:42:38.471Z,5.62
2017-12-06T12:45:06.415Z,6.13
2017-12-06T12:47:34.159Z,5.85
2017-12-06T12:50:01.927Z,5.91
2017-12-06T12:52:29.739Z,5.61
2017-12-06T12:54:57.540Z,5.42
2017-12-06T12:57:25.439Z,5.44
2017-12-06T12:59:53.332Z,5.80
2017-12-06T13:02:21.917Z,5.99
2017-12-06T13:04:49.668Z,5.61
2017-12-06T13:07:17.463Z,5.45
2017-12-06T13:09:45.283Z,5.45
2017-12-06T13:12:13.065Z,5.76
2017-12-06T13:14:40.857Z,6.04
2017-12-06T13:17:08.666Z,6.00
2017-12-06T13:19:36.419Z,6.19
2017-12-06T13:22:04.239Z,6.16
2017-12-06T13:24:32.039Z,5.67
2017-12-06T13:26:59.917Z,5.96
2017-12-06T13:29:28.629Z,5.74
2017-12-06T13:31:56.427Z,5.66
2017-12-06T13:34:24.819Z,5.30
2017-12-06T13:36:52.772Z,5.31
2017-12-06T13:39:20.578Z,5.38
2017-12-06T13:41:48.446Z,5.37
2017-12-06T13:44:16.377Z,5.47
2017-12-06T13:46:44.125Z,5.40
2017-12-06T13:49:12.113Z,5.34
2017-12-06T13:51:39.942Z,5.10
2017-12-06T13:54:07.753Z,5.18
2017-12-06T13:56:35.496Z,5.17
2017-12-06T13:59:03.411Z,4.76
2017-12-06T14:01:31.108Z,4.99
2017-12-06T14:03:58.928Z,4.45
2017-12-06T14:06:26.803Z,4.50
2017-12-06T14:08:54.535Z,4.24
2017-12-06T14:11:22.266Z,3.95
2017-12-06T14:13:50.143Z,4.03
2017-12-06T14:16:17.896Z,3.98
2017-12-06T14:18:45.638Z,3.73
2017-12-06T14:21:13.516Z,3.83
2017-12-06T14:23:41.341Z,3.50
2017-12-06T14:26:09.180Z,3.41
2017-12-06T14:28:36.934Z,3.47
2017-12-06T14:31:04.747Z,3.45
2017-12-06T14:33:33.330Z,3.43
2017-12-06T14:36:01.135Z,3.40
2017-12-06T14:38:28.947Z,3.08
2017-12-06T14:40:56.894Z,2.83
2017-12-06T14:43:24.695Z,2.93
2017-12-06T14:45:52.528Z,2.93
2017-12-06T14:48:20.352Z,2.88
2017-12-06T14:50:48.185Z,2.80
2017-12-06T14:53:16.005Z,2.82
2017-12-06T14:55:43.834Z,2.76
2017-12-06T14:58:11.646Z,2.56
2017-12-06T15:00:39.437Z,2.50
2017-12-06T15:03:07.216Z,2.32
2017-12-06T15:05:35.069Z,2.23
2017-12-06T15:08:02.849Z,2.16
2017-12-06T15:10:31.791Z,2.25
2017-12-06T15:12:59.553Z,2.10
2017-12-06T15:15:28.006Z,1.87
2017-12-06T15:17:56.100Z,1.78
2017-12-06T15:20:23.850Z,1.79
2017-12-06T15:22:51.700Z,1.82
2017-12-06T15:25:19.910Z,1.67
2017-12-06T15:27:49.620Z,1.57
2017-12-06T15:30:17.437Z,1.50
2017-12-06T15:32:46.557Z,1.34
2017-12-06T15:35:14.329Z,1.30
2017-12-06T15:37:42.177Z,1.16
2017-12-06T15:40:10.055Z,1.27
2017-12-06T15:42:38.705Z,1.29
2017-12-06T15:45:07.741Z,1.01
2017-12-06T15:47:35.556Z,1.16
2017-12-06T15:50:03.339Z,1.36
2017-12-06T15:52:31.126Z,1.24
2017-12-06T15:54:59.680Z,1.10
2017-12-06T15:57:28.027Z,0.93
2017-12-06T15:59:57.285Z,0.89
2017-12-06T16:02:25.093Z,0.84
2017-12-06T16:04:52.937Z,0.97
2017-12-06T16:07:21.496Z,0.93
2017-12-06T16:09:50.321Z,0.81
2017-12-06T16:12:18.218Z,0.63
2017-12-06T16:14:46.056Z,0.53
2017-12-06T16:17:14.815Z,0.61
2017-12-06T16:19:43.813Z,0.68
2017-12-06T16:22:11.966Z,0.49
2017-12-06T16:24:39.932Z,0.49
2017-12-06T16:27:07.873Z,0.48
2017-12-06T16:29:35.939Z,0.38
2017-12-06T16:32:03.948Z,0.36
2017-12-06T16:34:31.931Z,0.32
2017-12-06T16:37:11.641Z,0.54
2017-12-06T16:39:39.548Z,0.24
2017-12-06T16:42:07.689Z,0.20
2017-12-06T16:44:35.601Z,0.16
2017-12-06T16:47:03.420Z,0.19
2017-12-06T16:49:32.083Z,0.15
2017-12-06T16:52:00.029Z,0.07
2017-12-06T16:54:27.942Z,0.05
2017-12-06T16:56:56.684Z,0.02
2017-12-06T16:59:24.548Z,0.10
2017-12-06T17:01:52.322Z,-0.22
2017-12-06T17:04:20.214Z,-0.33
2017-12-06T17:06:48.046Z,-0.27
2017-12-06T17:09:15.930Z,-0.32
2017-12-06T17:11:43.852Z,-0.17
2017-12-06T17:14:11.715Z,-0.17
2017-12-06T17:16:39.602Z,-0.33
2017-12-06T17:19:07.473Z,-0.19
2017-12-06T17:21:35.257Z,-0.26
2017-12-06T17:24:03.105Z,-0.32
2017-12-06T17:26:30.899Z,-0.30
2017-12-06T17:29:10.446Z,-0.42
2017-12-06T17:31:47.982Z,-0.34
2017-12-06T17:34:15.826Z,-0.47
2017-12-06T17:36:46.690Z,-0.44
2017-12-06T17:39:14.458Z,-0.58
2017-12-06T17:41:42.253Z,-0.62
2017-12-06T17:44:10.089Z,-0.72
2017-12-06T17:46:37.957Z,-0.72
2017-12-06T17:49:05.757Z,-0.83
2017-12-06T17:51:34.265Z,-0.90
2017-12-06T17:54:02.234Z,-0.88
2017-12-06T17:56:30.005Z,-0.90
2017-12-06T17:58:57.831Z,-0.75
2017-12-06T18:01:25.689Z,-0.83
2017-12-06T18:03:53.587Z,-0.95
2017-12-06T18:06:21.390Z,-0.94
2017-12-06T18:08:50.116Z,-1.06
2017-12-06T18:11:17.920Z,-1.01
2017-12-06T18:13:45.791Z,-0.95
2017-12-06T18:16:14.301Z,-0.96
2017-12-06T18:18:42.765Z,-1.08
2017-12-06T18:21:10.524Z,-1.06
2017-12-06T18:23:38.320Z,-1.12
2017-12-06T18:26:06.218Z,-1.24
2017-12-06T18:28:34.074Z,-1.12
2017-12-06T18:31:01.825Z,-1.01
2017-12-06T18:33:29.614Z,-1.07
2017-12-06T18:35:57.378Z,-1.03
2017-12-06T18:38:25.173Z,-1.13
2017-12-06T18:40:55.439Z,-1.26
2017-12-06T18:43:23.371Z,-1.31
2017-12-06T18:45:51.716Z,-1.25
2017-12-06T18:48:19.660Z,-1.18
2017-12-06T18:50:47.904Z,-1.32
2017-12-06T18:53:16.142Z,-1.23
2017-12-06T18:55:44.082Z,-1.25
2017-12-06T18:58:13.149Z,-1.40
2017-12-06T19:00:41.030Z,-1.43
2017-12-06T19:03:08.866Z,-1.45
2017-12-06T19:05:37.635Z,-1.47
2017-12-06T19:08:06.607Z,-1.49
2017-12-06T19:10:34.486Z,-1.63
2017-12-06T19:13:02.332Z,-1.54
2017-12-06T19:15:30.135Z,-1.66
2017-12-06T19:17:58.054Z,-1.61
2017-12-06T19:20:26.131Z,-1.54
2017-12-06T19:22:54.650Z,-1.50
2017-12-06T19:25:22.878Z,-1.55
2017-12-06T19:27:50.872Z,-1.60
2017-12-06T19:30:19.552Z,-1.52
2017-12-06T19:32:51.957Z,-1.62
2017-12-06T19:35:20.007Z,-1.62
2017-12-06T19:37:48.247Z,-1.67
2017-12-06T19:40:18.341Z,-1.65
2017-12-06T19:42:46.289Z,-1.73
2017-12-06T19:45:14.420Z,-1.82
2017-12-06T19:47:43.102Z,-1.84
2017-12-06T19:50:11.220Z,-1.88
2017-12-06T19:52:40.274Z,-1.96
2017-12-06T19:55:10.347Z,-1.98
2017-12-06T19:57:39.286Z,-2.06
2017-12-06T20:00:08.237Z,-2.04
2017-12-06T20:02:38.215Z,-2.01
2017-12-06T20:05:06.246Z,-1.96
2017-12-06T20:07:36.075Z,-2.01
2017-12-06T20:10:07.589Z,-2.01
2017-12-06T20:12:37.106Z,-1.98
2017-12-06T20:15:06.250Z,-2.02
2017-12-06T20:17:34.089Z,-2.05
2017-12-06T20:20:01.916Z,-2.00
2017-12-06T20:22:30.493Z,-2.08
2017-12-06T20:24:59.290Z,-2.10
2017-12-06T20:27:29.268Z,-2.10
2017-12-06T20:29:57.083Z,-2.10
2017-12-06T20:32:25.987Z,-2.05
2017-12-06T20:34:55.078Z,-2.03
2017-12-06T20:37:22.838Z,-2.17
2017-12-06T20:39:51.265Z,-2.06
2017-12-06T20:42:19.210Z,-2.01
2017-12-06T20:44:47.039Z,-1.98
2017-12-06T20:47:14.934Z,-1.97
2017-12-06T20:49:42.850Z,-1.98
2017-12-06T20:52:10.628Z,-2.07
2017-12-06T20:54:38.390Z,-2.28
2017-12-06T20:57:06.128Z,-2.25
2017-12-06T20:59:33.924Z,-2.24
2017-12-06T21:02:01.702Z,-2.20
2017-12-06T21:04:29.473Z,-2.15
2017-12-06T21:06:57.949Z,-2.08
2017-12-06T21:09:25.728Z,-2.24
2017-12-06T21:11:53.471Z,-2.35
2017-12-06T21:14:21.231Z,-2.32
2017-12-06T21:16:48.944Z,-2.24
2017-12-06T21:19:16.720Z,-2.24
2017-12-06T21:21:44.486Z,-2.26
2017-12-06T21:24:12.307Z,-2.25
2017-12-06T21:26:40.000Z,-2.18
2017-12-06T21:29:07.775Z,-2.14
2017-12-06T21:31:35.534Z,-2.14
2017-12-06T21:34:03.285Z,-2.12
2017-12-06T21:36:31.010Z,-2.19
2017-12-06T21:38:58.757Z,-2.15
2017-12-06T21:41:26.646Z,-2.13
2017-12-06T21:43:55.280Z,-2.14
2017-12-06T21:46:22.995Z,-2.05
2017-12-06T21:48:50.744Z,-2.10
2017-12-06T21:51:18.499Z,-2.16
2017-12-06T21:53:46.362Z,-2.13
2017-12-06T21:56:14.123Z,-2.16
2017-12-06T21:58:41.827Z,-2.13
2017-12-06T22:01:09.647Z,-2.13
2017-12-06T22:03:37.424Z,-2.12
2017-12-06T22:06:05.268Z,-2.08
2017-12-06T22:08:33.015Z,-2.12
2017-12-06T22:11:00.812Z,-2.11
2017-12-06T22:13:28.758Z,-2.06
2017-12-06T22:15:56.564Z,-2.14
2017-12-06T22:18:24.376Z,-2.36
2017-12-06T22:20:52.178Z,-2.37
2017-12-06T22:23:19.968Z,-2.30
2017-12-06T22:25:48.315Z,-2.27
2017-12-06T22:28:16.087Z,-2.18
2017-12-06T22:30:43.794Z,-2.19
2017-12-06T22:33:11.536Z,-2.15
2017-12-06T22:35:39.367Z,-2.12
2017-12-06T22:38:07.059Z,-2.17
2017-12-06T22:40:34.764Z,-2.33
2017-12-06T22:43:02.591Z,-2.27
2017-12-06T22:45:30.387Z,-2.20
2017-12-06T22:47:58.154Z,-2.13
2017-12-06T22:50:25.964Z,-2.05
2017-12-06T22:52:53.701Z,-2.02
2017-12-06T22:55:21.483Z,-2.04
2017-12-06T22:57:49.303Z,-2.10
2017-12-06T23:00:17.038Z,-2.15
2017-12-06T23:02:44.896Z,-2.13
2017-12-06T23:05:12.660Z,-2.02
2017-12-06T23:07:40.421Z,-2.01
2017-12-06T23:10:08.145Z,-1.96
2017-12-06T23:12:35.922Z,-1.94
2017-12-06T23:15:03.702Z,-1.90
2017-12-06T23:17:31.453Z,-1.88
2017-12-06T23:19:59.215Z,-1.81
2017-12-06T23:22:26.959Z,-1.80
2017-12-06T23:24:54.726Z,-1.84
2017-12-06T23:27:22.439Z,-1.90
2017-12-06T23:29:50.140Z,-1.91
2017-12-06T23:32:17.908Z,-1.97
2017-12-06T23:34:45.685Z,-1.98
2017-12-06T23:37:13.464Z,-2.01
2017-12-06T23:39:41.192Z,-2.01
2017-12-06T23:42:09.049Z,-1.99
2017-12-06T23:44:36.734Z,-1.98
2017-12-06T23:47:04.559Z,-2.01
2017-12-06T23:49:32.372Z,-2.05
2017-12-06T23:52:00.060Z,-1.98
2017-12-06T23:54:27.816Z,-1.99
2017-12-06T23:56:55.585Z,-2.01
2017-12-06T23:59:23.353Z,-2.03
